Elmore City, Oklahoma
Current Conditions -  °F | °C
As of 9:15 PM on Sunday 23 Nov 2014 (Local Time) from KPVJ Reporting Station
Broken Clouds Broken Clouds  
Wind Chill: 37°   Ceiling: 2500
Heat Index: 45°   Visibility: 10mi
Dew Point: 37°   Wind: 20mph
Humidity: 73%   Direction: 340°NNW
Pressure: 29.71"   Gusts: 30mph
Location:  34.62°N, 97.4°W
Report Text: KPVJ 240315Z AUTO 34017G26KT 10SM BKN025 BKN042 07/03 A2971 RMK AO2 T00730027
Loading
Personal Weather Stations






























Interactive Weather Map New forecast layout! Learn more

10-Day Weather Forecast

Advertisements
Track Severe Weather on mobile